sensor_id;sensor_type;location;lat;lon;timestamp;pressure;altitude;pressure_sealevel;temperature;humidity
28588;BME280;15787;49.662;10.162;2023-04-07T00:01:11;99166.44;;;8.40;68.48
28588;BME280;15787;49.662;10.162;2023-04-07T00:03:44;99167.41;;;8.60;68.25
28588;BME280;15787;49.662;10.162;2023-04-07T00:06:18;99171.06;;;8.54;68.11
28588;BME280;15787;49.662;10.162;2023-04-07T00:08:51;99162.75;;;8.50;68.35
28588;BME280;15787;49.662;10.162;2023-04-07T00:11:24;99156.47;;;8.43;68.35
28588;BME280;15787;49.662;10.162;2023-04-07T00:13:57;99163.00;;;8.63;69.25
28588;BME280;15787;49.662;10.162;2023-04-07T00:16:30;99164.84;;;8.39;69.53
28588;BME280;15787;49.662;10.162;2023-04-07T00:19:03;99162.44;;;8.41;69.35
28588;BME280;15787;49.662;10.162;2023-04-07T00:21:38;99167.63;;;8.39;69.52
28588;BME280;15787;49.662;10.162;2023-04-07T00:24:11;99179.88;;;8.45;70.41
28588;BME280;15787;49.662;10.162;2023-04-07T00:26:57;99177.56;;;8.40;72.10
28588;BME280;15787;49.662;10.162;2023-04-07T00:29:31;99181.66;;;8.29;72.10
28588;BME280;15787;49.662;10.162;2023-04-07T00:32:04;99179.41;;;8.54;71.93
28588;BME280;15787;49.662;10.162;2023-04-07T00:34:37;99174.31;;;8.45;71.59
28588;BME280;15787;49.662;10.162;2023-04-07T00:37:11;99170.84;;;8.34;72.38
28588;BME280;15787;49.662;10.162;2023-04-07T00:39:44;99167.00;;;8.21;73.38
28588;BME280;15787;49.662;10.162;2023-04-07T00:42:18;99170.22;;;8.16;74.65
28588;BME280;15787;49.662;10.162;2023-04-07T00:44:50;99164.22;;;8.21;74.95
28588;BME280;15787;49.662;10.162;2023-04-07T00:47:24;99166.69;;;8.12;76.21
28588;BME280;15787;49.662;10.162;2023-04-07T00:49:57;99161.25;;;7.98;77.82
28588;BME280;15787;49.662;10.162;2023-04-07T00:52:32;99162.16;;;7.84;77.80
28588;BME280;15787;49.662;10.162;2023-04-07T00:55:06;99157.03;;;7.83;78.67
28588;BME280;15787;49.662;10.162;2023-04-07T00:57:39;99153.94;;;7.70;79.29
28588;BME280;15787;49.662;10.162;2023-04-07T01:00:13;99149.78;;;7.92;79.85
28588;BME280;15787;49.662;10.162;2023-04-07T01:02:52;99145.03;;;7.93;80.23
28588;BME280;15787;49.662;10.162;2023-04-07T01:05:34;99145.69;;;8.04;79.67
28588;BME280;15787;49.662;10.162;2023-04-07T01:08:16;99137.78;;;8.02;80.44
28588;BME280;15787;49.662;10.162;2023-04-07T01:10:55;99150.75;;;8.16;79.52
28588;BME280;15787;49.662;10.162;2023-04-07T01:13:33;99146.59;;;7.94;80.30
28588;BME280;15787;49.662;10.162;2023-04-07T01:16:22;99144.16;;;7.99;81.50
28588;BME280;15787;49.662;10.162;2023-04-07T01:19:07;99141.72;;;8.05;81.81
28588;BME280;15787;49.662;10.162;2023-04-07T01:21:50;99139.09;;;8.32;82.07
28588;BME280;15787;49.662;10.162;2023-04-07T01:24:53;99131.34;;;8.09;81.86
28588;BME280;15787;49.662;10.162;2023-04-07T01:27:38;99132.03;;;7.76;82.38
28588;BME280;15787;49.662;10.162;2023-04-07T01:30:16;99143.63;;;8.11;82.15
28588;BME280;15787;49.662;10.162;2023-04-07T01:32:51;99144.31;;;8.26;82.79
28588;BME280;15787;49.662;10.162;2023-04-07T01:35:25;99144.16;;;7.99;83.73
28588;BME280;15787;49.662;10.162;2023-04-07T01:38:01;99140.28;;;7.90;83.52
28588;BME280;15787;49.662;10.162;2023-04-07T01:40:36;99137.56;;;7.83;84.44
28588;BME280;15787;49.662;10.162;2023-04-07T01:43:11;99133.28;;;7.71;85.81
28588;BME280;15787;49.662;10.162;2023-04-07T01:45:46;99134.00;;;7.79;85.61
28588;BME280;15787;49.662;10.162;2023-04-07T01:48:20;99123.63;;;7.35;85.76
28588;BME280;15787;49.662;10.162;2023-04-07T01:50:54;99124.72;;;7.51;86.55
28588;BME280;15787;49.662;10.162;2023-04-07T01:53:29;99118.59;;;7.71;86.38
28588;BME280;15787;49.662;10.162;2023-04-07T01:56:02;99123.75;;;7.72;86.21
28588;BME280;15787;49.662;10.162;2023-04-07T01:58:37;99120.25;;;7.64;87.18
28588;BME280;15787;49.662;10.162;2023-04-07T02:01:14;99119.38;;;7.75;86.11
28588;BME280;15787;49.662;10.162;2023-04-07T02:03:52;99119.28;;;7.82;85.97
28588;BME280;15787;49.662;10.162;2023-04-07T02:06:31;99112.25;;;7.19;85.88
28588;BME280;15787;49.662;10.162;2023-04-07T02:09:06;99113.59;;;6.93;86.94
28588;BME280;15787;49.662;10.162;2023-04-07T02:11:43;99110.22;;;7.23;88.46
28588;BME280;15787;49.662;10.162;2023-04-07T02:14:18;99115.28;;;7.35;88.49
28588;BME280;15787;49.662;10.162;2023-04-07T02:17:13;99114.59;;;7.24;89.68
28588;BME280;15787;49.662;10.162;2023-04-07T02:19:49;99110.09;;;7.40;90.17
28588;BME280;15787;49.662;10.162;2023-04-07T02:22:24;99103.78;;;7.36;90.57
28588;BME280;15787;49.662;10.162;2023-04-07T02:25:01;99112.00;;;7.54;90.43
28588;BME280;15787;49.662;10.162;2023-04-07T02:27:37;99105.41;;;7.30;91.45
28588;BME280;15787;49.662;10.162;2023-04-07T02:30:11;99107.53;;;7.12;92.96
28588;BME280;15787;49.662;10.162;2023-04-07T02:32:45;99102.56;;;7.41;93.38
28588;BME280;15787;49.662;10.162;2023-04-07T02:35:22;99103.84;;;7.29;93.73
28588;BME280;15787;49.662;10.162;2023-04-07T02:37:55;99105.53;;;7.16;94.00
28588;BME280;15787;49.662;10.162;2023-04-07T02:40:28;99102.03;;;7.56;94.16
28588;BME280;15787;49.662;10.162;2023-04-07T02:43:02;99099.06;;;7.30;94.15
28588;BME280;15787;49.662;10.162;2023-04-07T02:45:38;99101.09;;;7.22;93.87
28588;BME280;15787;49.662;10.162;2023-04-07T02:48:12;99094.59;;;7.46;93.95
28588;BME280;15787;49.662;10.162;2023-04-07T02:50:46;99096.19;;;6.89;94.16
28588;BME280;15787;49.662;10.162;2023-04-07T02:53:20;99089.31;;;7.08;95.19
28588;BME280;15787;49.662;10.162;2023-04-07T02:55:53;99084.72;;;7.38;94.75
28588;BME280;15787;49.662;10.162;2023-04-07T02:58:26;99089.69;;;7.64;94.05
28588;BME280;15787;49.662;10.162;2023-04-07T03:00:59;99083.84;;;7.52;93.96
28588;BME280;15787;49.662;10.162;2023-04-07T03:03:36;99086.56;;;7.55;93.63
28588;BME280;15787;49.662;10.162;2023-04-07T03:06:15;99082.81;;;7.28;93.82
28588;BME280;15787;49.662;10.162;2023-04-07T03:09:00;99072.91;;;7.27;94.04
28588;BME280;15787;49.662;10.162;2023-04-07T03:11:33;99074.41;;;6.80;95.44
28588;BME280;15787;49.662;10.162;2023-04-07T03:14:07;99071.28;;;7.33;95.30
28588;BME280;15787;49.662;10.162;2023-04-07T03:16:46;99071.41;;;7.16;95.98
28588;BME280;15787;49.662;10.162;2023-04-07T03:19:21;99065.66;;;6.85;96.35
28588;BME280;15787;49.662;10.162;2023-04-07T03:21:56;99065.84;;;7.19;95.94
28588;BME280;15787;49.662;10.162;2023-04-07T03:24:29;99065.38;;;7.28;95.15
28588;BME280;15787;49.662;10.162;2023-04-07T03:27:03;99065.78;;;7.23;95.40
28588;BME280;15787;49.662;10.162;2023-04-07T03:29:45;99064.00;;;6.95;95.38
28588;BME280;15787;49.662;10.162;2023-04-07T03:32:20;99060.97;;;6.72;96.22
28588;BME280;15787;49.662;10.162;2023-04-07T03:34:54;99055.69;;;6.98;96.88
28588;BME280;15787;49.662;10.162;2023-04-07T03:37:28;99058.25;;;7.23;95.31
28588;BME280;15787;49.662;10.162;2023-04-07T03:40:00;99056.19;;;7.34;94.70
28588;BME280;15787;49.662;10.162;2023-04-07T03:42:38;99058.19;;;7.30;94.28
28588;BME280;15787;49.662;10.162;2023-04-07T03:45:12;99052.66;;;7.30;94.35
28588;BME280;15787;49.662;10.162;2023-04-07T03:47:50;99051.53;;;7.24;93.96
28588;BME280;15787;49.662;10.162;2023-04-07T03:50:27;99044.50;;;7.09;95.43
28588;BME280;15787;49.662;10.162;2023-04-07T03:53:20;99051.34;;;6.94;96.84
28588;BME280;15787;49.662;10.162;2023-04-07T03:55:55;99049.13;;;7.23;96.97
28588;BME280;15787;49.662;10.162;2023-04-07T03:58:44;99050.56;;;6.93;98.01
28588;BME280;15787;49.662;10.162;2023-04-07T04:01:23;99045.44;;;6.81;100.00
28588;BME280;15787;49.662;10.162;2023-04-07T04:03:57;99045.88;;;6.80;100.00
28588;BME280;15787;49.662;10.162;2023-04-07T04:06:34;99047.94;;;6.62;100.00
28588;BME280;15787;49.662;10.162;2023-04-07T04:09:16;99046.94;;;6.27;100.00
28588;BME280;15787;49.662;10.162;2023-04-07T04:11:51;99045.34;;;6.26;100.00
28588;BME280;15787;49.662;10.162;2023-04-07T04:14:24;99048.41;;;6.50;100.00
28588;BME280;15787;49.662;10.162;2023-04-07T04:17:01;99044.94;;;6.31;100.00
28588;BME280;15787;49.662;10.162;2023-04-07T04:19:44;99044.47;;;6.51;100.00
28588;BME280;15787;49.662;10.162;2023-04-07T04:22:30;99045.72;;;6.28;100.00
28588;BME280;15787;49.662;10.162;2023-04-07T04:25:03;99037.88;;;6.16;100.00
28588;BME280;15787;49.662;10.162;2023-04-07T04:27:37;99036.84;;;6.65;100.00
28588;BME280;15787;49.662;10.162;2023-04-07T04:30:18;99046.91;;;6.34;100.00
28588;BME280;15787;49.662;10.162;2023-04-07T04:32:58;99036.56;;;6.38;100.00
28588;BME280;15787;49.662;10.162;2023-04-07T04:35:39;99033.78;;;6.46;100.00
28588;BME280;15787;49.662;10.162;2023-04-07T04:38:18;99035.81;;;6.38;100.00
28588;BME280;15787;49.662;10.162;2023-04-07T04:41:11;99033.78;;;6.42;100.00
28588;BME280;15787;49.662;10.162;2023-04-07T04:43:44;99030.97;;;6.53;100.00
28588;BME280;15787;49.662;10.162;2023-04-07T04:46:22;99040.97;;;6.32;100.00
28588;BME280;15787;49.662;10.162;2023-04-07T04:48:55;99040.19;;;6.35;100.00
28588;BME280;15787;49.662;10.162;2023-04-07T04:51:29;99043.34;;;6.38;100.00
28588;BME280;15787;49.662;10.162;2023-04-07T04:54:09;99038.97;;;6.36;100.00
28588;BME280;15787;49.662;10.162;2023-04-07T04:56:42;99037.88;;;6.16;100.00
28588;BME280;15787;49.662;10.162;2023-04-07T04:59:15;99037.94;;;6.02;100.00
28588;BME280;15787;49.662;10.162;2023-04-07T05:01:59;99037.03;;;6.26;100.00
28588;BME280;15787;49.662;10.162;2023-04-07T05:04:33;99041.84;;;6.12;100.00
28588;BME280;15787;49.662;10.162;2023-04-07T05:07:24;99036.66;;;6.24;100.00
28588;BME280;15787;49.662;10.162;2023-04-07T05:09:58;99033.16;;;6.06;100.00
28588;BME280;15787;49.662;10.162;2023-04-07T05:12:32;99037.13;;;5.98;100.00
28588;BME280;15787;49.662;10.162;2023-04-07T05:15:07;99044.22;;;6.13;100.00
28588;BME280;15787;49.662;10.162;2023-04-07T05:17:40;99045.38;;;6.19;100.00
28588;BME280;15787;49.662;10.162;2023-04-07T05:20:17;99032.72;;;6.11;100.00
28588;BME280;15787;49.662;10.162;2023-04-07T05:22:50;99031.16;;;6.10;100.00
28588;BME280;15787;49.662;10.162;2023-04-07T05:25:28;99041.84;;;6.12;100.00
28588;BME280;15787;49.662;10.162;2023-04-07T05:28:05;99044.13;;;6.34;100.00
28588;BME280;15787;49.662;10.162;2023-04-07T05:30:38;99039.38;;;6.28;100.00
28588;BME280;15787;49.662;10.162;2023-04-07T05:33:11;99046.91;;;6.34;100.00
28588;BME280;15787;49.662;10.162;2023-04-07T05:35:56;99044.56;;;6.29;100.00
28588;BME280;15787;49.662;10.162;2023-04-07T05:38:29;99028.28;;;6.31;100.00
28588;BME280;15787;49.662;10.162;2023-04-07T05:41:10;99041.44;;;6.13;100.00
28588;BME280;15787;49.662;10.162;2023-04-07T05:43:44;99027.97;;;6.15;100.00
28588;BME280;15787;49.662;10.162;2023-04-07T05:46:19;99034.63;;;6.28;100.00
28588;BME280;15787;49.662;10.162;2023-04-07T05:48:56;99037.75;;;6.48;100.00
28588;BME280;15787;49.662;10.162;2023-04-07T05:51:36;99041.34;;;6.34;100.00
28588;BME280;15787;49.662;10.162;2023-04-07T05:54:13;99039.34;;;6.38;100.00
28588;BME280;15787;49.662;10.162;2023-04-07T05:56:48;99046.91;;;6.31;100.00
28588;BME280;15787;49.662;10.162;2023-04-07T05:59:22;99029.00;;;6.46;100.00
28588;BME280;15787;49.662;10.162;2023-04-07T06:01:56;99031.41;;;6.44;100.00
28588;BME280;15787;49.662;10.162;2023-04-07T06:04:29;99036.31;;;6.88;100.00
28588;BME280;15787;49.662;10.162;2023-04-07T06:07:04;99034.75;;;6.83;100.00
28588;BME280;15787;49.662;10.162;2023-04-07T06:09:36;99044.19;;;6.96;100.00
28588;BME280;15787;49.662;10.162;2023-04-07T06:12:10;99044.19;;;6.93;100.00
28588;BME280;15787;49.662;10.162;2023-04-07T06:14:46;99039.47;;;6.90;100.00
28588;BME280;15787;49.662;10.162;2023-04-07T06:17:23;99046.84;;;7.11;100.00
28588;BME280;15787;49.662;10.162;2023-04-07T06:19:56;99050.19;;;6.91;100.00
28588;BME280;15787;49.662;10.162;2023-04-07T06:22:28;99044.28;;;6.82;100.00
28588;BME280;15787;49.662;10.162;2023-04-07T06:25:01;99035.00;;;7.03;100.00
28588;BME280;15787;49.662;10.162;2023-04-07T06:27:37;99041.63;;;7.20;100.00
28588;BME280;15787;49.662;10.162;2023-04-07T06:30:10;99048.78;;;7.17;100.00
28588;BME280;15787;49.662;10.162;2023-04-07T06:32:43;99047.03;;;6.86;100.00
28588;BME280;15787;49.662;10.162;2023-04-07T06:35:16;99047.78;;;6.86;100.00
28588;BME280;15787;49.662;10.162;2023-04-07T06:37:49;99044.63;;;6.88;100.00
28588;BME280;15787;49.662;10.162;2023-04-07T06:40:21;99048.41;;;7.15;100.00
28588;BME280;15787;49.662;10.162;2023-04-07T06:42:56;99047.72;;;7.04;100.00
28588;BME280;15787;49.662;10.162;2023-04-07T06:45:40;99050.47;;;7.04;100.00
28588;BME280;15787;49.662;10.162;2023-04-07T06:48:13;99059.88;;;7.21;100.00
28588;BME280;15787;49.662;10.162;2023-04-07T06:50:48;99054.03;;;7.05;100.00
28588;BME280;15787;49.662;10.162;2023-04-07T06:53:21;99052.53;;;6.89;100.00
28588;BME280;15787;49.662;10.162;2023-04-07T06:56:02;99046.94;;;7.00;100.00
28588;BME280;15787;49.662;10.162;2023-04-07T06:58:36;99050.06;;;7.09;100.00
28588;BME280;15787;49.662;10.162;2023-04-07T07:01:09;99049.22;;;7.12;100.00
28588;BME280;15787;49.662;10.162;2023-04-07T07:03:42;99049.31;;;6.98;100.00
28588;BME280;15787;49.662;10.162;2023-04-07T07:06:15;99050.50;;;7.00;100.00
28588;BME280;15787;49.662;10.162;2023-04-07T07:08:48;99049.13;;;7.26;100.00
28588;BME280;15787;49.662;10.162;2023-04-07T07:11:21;99048.53;;;7.01;100.00
28588;BME280;15787;49.662;10.162;2023-04-07T07:13:55;99047.09;;;7.30;100.00
28588;BME280;15787;49.662;10.162;2023-04-07T07:16:28;99049.81;;;7.78;100.00
28588;BME280;15787;49.662;10.162;2023-04-07T07:19:01;99048.94;;;7.88;100.00
28588;BME280;15787;49.662;10.162;2023-04-07T07:21:34;99055.38;;;7.78;100.00
28588;BME280;15787;49.662;10.162;2023-04-07T07:24:07;99058.16;;;7.78;100.00
28588;BME280;15787;49.662;10.162;2023-04-07T07:26:40;99047.91;;;8.09;100.00
28588;BME280;15787;49.662;10.162;2023-04-07T07:29:16;99051.69;;;8.29;100.00
28588;BME280;15787;49.662;10.162;2023-04-07T07:31:49;99055.53;;;8.01;100.00
28588;BME280;15787;49.662;10.162;2023-04-07T07:34:23;99059.13;;;8.02;100.00
28588;BME280;15787;49.662;10.162;2023-04-07T07:36:56;99058.75;;;8.00;100.00
28588;BME280;15787;49.662;10.162;2023-04-07T07:39:30;99055.09;;;8.06;100.00
28588;BME280;15787;49.662;10.162;2023-04-07T07:42:03;99061.06;;;7.68;100.00
28588;BME280;15787;49.662;10.162;2023-04-07T07:44:37;99054.75;;;7.63;100.00
28588;BME280;15787;49.662;10.162;2023-04-07T07:47:10;99055.97;;;7.62;100.00
28588;BME280;15787;49.662;10.162;2023-04-07T07:49:44;99050.38;;;8.03;100.00
28588;BME280;15787;49.662;10.162;2023-04-07T07:52:17;99057.06;;;7.69;100.00
28588;BME280;15787;49.662;10.162;2023-04-07T07:54:52;99060.75;;;7.58;100.00
28588;BME280;15787;49.662;10.162;2023-04-07T07:57:25;99067.19;;;7.48;100.00
28588;BME280;15787;49.662;10.162;2023-04-07T08:00:00;99071.84;;;8.03;100.00
28588;BME280;15787;49.662;10.162;2023-04-07T08:02:43;99067.44;;;8.05;100.00
28588;BME280;15787;49.662;10.162;2023-04-07T08:05:17;99071.50;;;7.97;100.00
28588;BME280;15787;49.662;10.162;2023-04-07T08:07:51;99065.13;;;7.97;100.00
28588;BME280;15787;49.662;10.162;2023-04-07T08:10:25;99074.25;;;8.38;100.00
28588;BME280;15787;49.662;10.162;2023-04-07T08:12:58;99075.69;;;8.12;100.00
28588;BME280;15787;49.662;10.162;2023-04-07T08:15:32;99074.72;;;7.92;99.66
28588;BME280;15787;49.662;10.162;2023-04-07T08:18:08;99078.19;;;8.03;100.00
28588;BME280;15787;49.662;10.162;2023-04-07T08:20:41;99073.72;;;8.13;99.60
28588;BME280;15787;49.662;10.162;2023-04-07T08:23:14;99074.84;;;8.53;97.76
28588;BME280;15787;49.662;10.162;2023-04-07T08:25:47;99075.88;;;8.32;97.83
28588;BME280;15787;49.662;10.162;2023-04-07T08:28:19;99079.75;;;8.42;97.31
28588;BME280;15787;49.662;10.162;2023-04-07T08:30:54;99058.72;;;8.71;96.51
28588;BME280;15787;49.662;10.162;2023-04-07T08:33:27;99075.16;;;8.62;95.74
28588;BME280;15787;49.662;10.162;2023-04-07T08:36:00;99075.38;;;8.74;94.99
28588;BME280;15787;49.662;10.162;2023-04-07T08:38:33;99067.56;;;8.62;94.09
28588;BME280;15787;49.662;10.162;2023-04-07T08:41:07;99066.91;;;8.81;95.87
28588;BME280;15787;49.662;10.162;2023-04-07T08:43:43;99073.09;;;9.23;95.78
28588;BME280;15787;49.662;10.162;2023-04-07T08:46:20;99068.19;;;9.04;92.66
28588;BME280;15787;49.662;10.162;2023-04-07T08:48:55;99068.19;;;9.30;90.71
28588;BME280;15787;49.662;10.162;2023-04-07T08:51:30;99076.84;;;9.36;90.37
28588;BME280;15787;49.662;10.162;2023-04-07T08:54:05;99071.94;;;9.43;89.25
28588;BME280;15787;49.662;10.162;2023-04-07T08:56:42;99065.56;;;9.66;89.88
28588;BME280;15787;49.662;10.162;2023-04-07T08:59:15;99072.25;;;9.49;88.22
28588;BME280;15787;49.662;10.162;2023-04-07T09:01:50;99080.75;;;9.88;88.27
28588;BME280;15787;49.662;10.162;2023-04-07T09:04:24;99080.28;;;9.43;87.61
28588;BME280;15787;49.662;10.162;2023-04-07T09:06:58;99072.47;;;10.04;87.54
28588;BME280;15787;49.662;10.162;2023-04-07T09:09:32;99079.97;;;10.07;86.89
28588;BME280;15787;49.662;10.162;2023-04-07T09:12:05;99088.50;;;9.77;86.79
28588;BME280;15787;49.662;10.162;2023-04-07T09:14:38;99093.56;;;9.36;86.01
28588;BME280;15787;49.662;10.162;2023-04-07T09:17:13;99080.56;;;10.42;88.85
28588;BME280;15787;49.662;10.162;2023-04-07T09:19:45;99076.41;;;10.50;86.66
28588;BME280;15787;49.662;10.162;2023-04-07T09:22:33;99074.75;;;10.52;86.27
28588;BME280;15787;49.662;10.162;2023-04-07T09:25:12;99082.75;;;10.31;86.08
28588;BME280;15787;49.662;10.162;2023-04-07T09:27:56;99080.81;;;10.28;84.52
28588;BME280;15787;49.662;10.162;2023-04-07T09:30:30;99068.66;;;10.77;86.16
28588;BME280;15787;49.662;10.162;2023-04-07T09:33:05;99067.41;;;11.14;85.54
28588;BME280;15787;49.662;10.162;2023-04-07T09:35:50;99064.56;;;11.50;85.43
28588;BME280;15787;49.662;10.162;2023-04-07T09:38:31;99066.75;;;11.90;84.10
28588;BME280;15787;49.662;10.162;2023-04-07T09:41:06;99065.94;;;11.41;81.72
28588;BME280;15787;49.662;10.162;2023-04-07T09:43:41;99064.03;;;11.55;81.40
28588;BME280;15787;49.662;10.162;2023-04-07T09:46:16;99065.69;;;11.52;80.28
28588;BME280;15787;49.662;10.162;2023-04-07T09:49:00;99069.13;;;12.21;80.41
28588;BME280;15787;49.662;10.162;2023-04-07T09:51:35;99070.56;;;12.41;77.02
28588;BME280;15787;49.662;10.162;2023-04-07T09:54:08;99069.72;;;11.35;77.83
28588;BME280;15787;49.662;10.162;2023-04-07T09:56:43;99070.19;;;11.82;79.37
28588;BME280;15787;49.662;10.162;2023-04-07T09:59:17;99065.09;;;11.28;79.26
28588;BME280;15787;49.662;10.162;2023-04-07T10:01:50;99068.53;;;10.64;77.34
28588;BME280;15787;49.662;10.162;2023-04-07T10:04:28;99072.25;;;10.94;77.66
28588;BME280;15787;49.662;10.162;2023-04-07T10:07:01;99070.16;;;10.62;78.46
28588;BME280;15787;49.662;10.162;2023-04-07T10:09:34;99069.72;;;11.35;78.93
28588;BME280;15787;49.662;10.162;2023-04-07T10:12:07;99068.75;;;11.90;78.78
28588;BME280;15787;49.662;10.162;2023-04-07T10:14:41;99072.47;;;11.03;79.14
28588;BME280;15787;49.662;10.162;2023-04-07T10:17:18;99061.22;;;11.22;79.58
28588;BME280;15787;49.662;10.162;2023-04-07T10:19:53;99067.50;;;11.26;78.69
28588;BME280;15787;49.662;10.162;2023-04-07T10:22:28;99066.75;;;11.26;75.93
28588;BME280;15787;49.662;10.162;2023-04-07T10:25:05;99067.00;;;11.80;77.98
28588;BME280;15787;49.662;10.162;2023-04-07T10:27:44;99066.47;;;11.20;77.27
28588;BME280;15787;49.662;10.162;2023-04-07T10:30:24;99067.44;;;11.62;77.58
28588;BME280;15787;49.662;10.162;2023-04-07T10:32:58;99070.25;;;11.94;75.24
28588;BME280;15787;49.662;10.162;2023-04-07T10:36:01;99076.75;;;12.20;76.11
28588;BME280;15787;49.662;10.162;2023-04-07T10:38:35;99070.66;;;11.44;73.48
28588;BME280;15787;49.662;10.162;2023-04-07T10:41:36;99076.59;;;12.11;73.86
28588;BME280;15787;49.662;10.162;2023-04-07T10:47:32;99067.28;;;12.72;72.80
28588;BME280;15787;49.662;10.162;2023-04-07T10:50:24;99082.31;;;11.91;72.41
28588;BME280;15787;49.662;10.162;2023-04-07T10:53:09;99071.78;;;12.12;72.60
28588;BME280;15787;49.662;10.162;2023-04-07T10:55:46;99073.97;;;12.20;73.00
28588;BME280;15787;49.662;10.162;2023-04-07T10:58:43;99082.97;;;12.12;72.04
28588;BME280;15787;49.662;10.162;2023-04-07T11:01:18;99075.44;;;12.25;72.20
28588;BME280;15787;49.662;10.162;2023-04-07T11:03:57;99077.84;;;12.93;69.53
28588;BME280;15787;49.662;10.162;2023-04-07T11:06:31;99073.72;;;12.97;69.53
28588;BME280;15787;49.662;10.162;2023-04-07T11:09:18;99085.00;;;12.68;70.42
28588;BME280;15787;49.662;10.162;2023-04-07T11:11:50;99077.25;;;13.26;69.87
28588;BME280;15787;49.662;10.162;2023-04-07T11:14:24;99076.47;;;13.13;71.10
28588;BME280;15787;49.662;10.162;2023-04-07T11:17:01;99071.66;;;13.26;69.71
28588;BME280;15787;49.662;10.162;2023-04-07T11:19:49;99079.41;;;12.68;71.28
28588;BME280;15787;49.662;10.162;2023-04-07T11:22:22;99076.22;;;12.66;69.29
28588;BME280;15787;49.662;10.162;2023-04-07T11:25:02;99077.97;;;13.02;68.89
28588;BME280;15787;49.662;10.162;2023-04-07T11:27:36;99084.31;;;11.75;70.46
28588;BME280;15787;49.662;10.162;2023-04-07T11:30:10;99077.47;;;12.08;71.56
28588;BME280;15787;49.662;10.162;2023-04-07T11:32:47;99086.91;;;12.14;73.20
28588;BME280;15787;49.662;10.162;2023-04-07T11:35:21;99081.53;;;11.91;72.57
28588;BME280;15787;49.662;10.162;2023-04-07T11:37:58;99082.78;;;12.76;70.84
28588;BME280;15787;49.662;10.162;2023-04-07T11:40:35;99083.84;;;13.07;71.64
28588;BME280;15787;49.662;10.162;2023-04-07T11:43:16;99084.28;;;13.06;69.92
28588;BME280;15787;49.662;10.162;2023-04-07T11:46:08;99092.44;;;13.00;70.65
28588;BME280;15787;49.662;10.162;2023-04-07T11:48:43;99087.34;;;12.41;69.55
28588;BME280;15787;49.662;10.162;2023-04-07T11:51:19;99094.53;;;12.14;69.27
28588;BME280;15787;49.662;10.162;2023-04-07T11:53:55;99096.56;;;12.83;71.06
28588;BME280;15787;49.662;10.162;2023-04-07T11:56:29;99097.44;;;12.80;70.90
28588;BME280;15787;49.662;10.162;2023-04-07T11:59:02;99094.63;;;13.34;69.73
28588;BME280;15787;49.662;10.162;2023-04-07T12:01:39;99096.97;;;12.69;68.99
28588;BME280;15787;49.662;10.162;2023-04-07T12:04:13;99080.44;;;13.00;69.16
28588;BME280;15787;49.662;10.162;2023-04-07T12:06:47;99076.19;;;13.71;69.89
28588;BME280;15787;49.662;10.162;2023-04-07T12:09:29;99082.97;;;13.36;69.44
28588;BME280;15787;49.662;10.162;2023-04-07T12:12:05;99083.47;;;13.05;68.50
28588;BME280;15787;49.662;10.162;2023-04-07T12:14:39;99069.50;;;13.43;69.88
28588;BME280;15787;49.662;10.162;2023-04-07T12:17:19;99072.28;;;13.68;67.02
28588;BME280;15787;49.662;10.162;2023-04-07T12:19:52;99066.47;;;14.44;68.40
28588;BME280;15787;49.662;10.162;2023-04-07T12:22:25;99075.81;;;14.41;66.76
28588;BME280;15787;49.662;10.162;2023-04-07T12:24:58;99064.06;;;15.07;64.78
28588;BME280;15787;49.662;10.162;2023-04-07T12:27:33;99075.16;;;13.90;66.67
28588;BME280;15787;49.662;10.162;2023-04-07T12:30:14;99079.00;;;14.74;64.77
28588;BME280;15787;49.662;10.162;2023-04-07T12:32:47;99066.41;;;15.09;63.61
28588;BME280;15787;49.662;10.162;2023-04-07T12:35:20;99070.78;;;13.89;65.53
28588;BME280;15787;49.662;10.162;2023-04-07T12:37:53;99083.19;;;13.54;66.46
28588;BME280;15787;49.662;10.162;2023-04-07T12:40:27;99079.72;;;13.97;65.25
28588;BME280;15787;49.662;10.162;2023-04-07T12:43:04;99093.19;;;12.76;65.42
28588;BME280;15787;49.662;10.162;2023-04-07T12:45:38;99083.50;;;13.56;65.60
28588;BME280;15787;49.662;10.162;2023-04-07T12:48:10;99080.59;;;13.59;66.54
28588;BME280;15787;49.662;10.162;2023-04-07T12:50:44;99077.38;;;14.29;63.61
28588;BME280;15787;49.662;10.162;2023-04-07T12:53:17;99078.47;;;13.38;65.05
28588;BME280;15787;49.662;10.162;2023-04-07T12:55:50;99076.69;;;13.32;66.79
28588;BME280;15787;49.662;10.162;2023-04-07T12:58:24;99073.50;;;13.80;66.27
28588;BME280;15787;49.662;10.162;2023-04-07T13:00:58;99071.91;;;13.79;65.68
28588;BME280;15787;49.662;10.162;2023-04-07T13:03:31;99069.78;;;13.83;65.97
28588;BME280;15787;49.662;10.162;2023-04-07T13:06:05;99076.78;;;13.41;66.38
28588;BME280;15787;49.662;10.162;2023-04-07T13:08:38;99070.34;;;13.65;67.40
28588;BME280;15787;49.662;10.162;2023-04-07T13:11:12;99068.41;;;14.00;65.81
28588;BME280;15787;49.662;10.162;2023-04-07T13:13:46;99070.38;;;14.12;66.81
28588;BME280;15787;49.662;10.162;2023-04-07T13:16:19;99069.31;;;14.31;65.46
28588;BME280;15787;49.662;10.162;2023-04-07T13:18:52;99063.56;;;14.35;64.78
28588;BME280;15787;49.662;10.162;2023-04-07T13:21:25;99061.81;;;14.72;64.10
28588;BME280;15787;49.662;10.162;2023-04-07T13:24:17;99061.56;;;15.09;61.94
28588;BME280;15787;49.662;10.162;2023-04-07T13:26:52;99062.97;;;14.83;63.83
28588;BME280;15787;49.662;10.162;2023-04-07T13:29:26;99056.28;;;14.59;61.65
28588;BME280;15787;49.662;10.162;2023-04-07T13:32:04;99056.03;;;14.75;62.51
28588;BME280;15787;49.662;10.162;2023-04-07T13:34:38;99048.41;;;15.37;64.30
28588;BME280;15787;49.662;10.162;2023-04-07T13:37:11;99045.50;;;15.50;62.16
28588;BME280;15787;49.662;10.162;2023-04-07T13:39:44;99046.91;;;15.54;62.02
28588;BME280;15787;49.662;10.162;2023-04-07T13:42:17;99037.66;;;15.14;63.91